createdAt,value
2024-05-09T00:00:36.394Z,10.10
2024-05-09T00:03:07.898Z,10.08
2024-05-09T00:05:35.865Z,9.73
2024-05-09T00:08:03.028Z,9.42
2024-05-09T00:10:36.022Z,9.33
2024-05-09T00:13:09.000Z,9.49
2024-05-09T00:15:36.815Z,9.72
2024-05-09T00:18:04.984Z,9.79
2024-05-09T00:20:38.519Z,9.68
2024-05-09T00:23:12.013Z,9.77
2024-05-09T00:25:39.526Z,9.82
2024-05-09T00:28:06.824Z,9.80
2024-05-09T00:30:36.141Z,9.87
2024-05-09T00:33:06.217Z,9.81
2024-05-09T00:35:34.171Z,9.67
2024-05-09T00:38:01.315Z,9.72
2024-05-09T00:40:39.577Z,9.73
2024-05-09T00:43:08.908Z,9.67
2024-05-09T00:45:35.887Z,9.43
2024-05-09T00:48:06.732Z,9.22
2024-05-09T00:50:37.337Z,9.39
2024-05-09T00:53:08.430Z,9.48
2024-05-09T00:55:36.513Z,9.53
2024-05-09T00:58:04.993Z,9.59
2024-05-09T01:00:38.410Z,9.56
2024-05-09T01:03:08.833Z,9.48
2024-05-09T01:05:39.520Z,9.33
2024-05-09T01:08:07.909Z,9.32
2024-05-09T01:10:36.132Z,9.30
2024-05-09T01:13:04.338Z,9.22
2024-05-09T01:15:31.135Z,9.21
2024-05-09T01:17:58.618Z,9.09
2024-05-09T01:20:36.605Z,9.19
2024-05-09T01:23:09.949Z,9.20
2024-05-09T01:25:37.594Z,8.99
2024-05-09T01:28:04.529Z,8.85
2024-05-09T01:30:35.483Z,8.86
2024-05-09T01:33:10.002Z,8.94
2024-05-09T01:35:40.879Z,8.74
2024-05-09T01:38:08.628Z,8.58
2024-05-09T01:40:38.864Z,8.38
2024-05-09T01:43:11.069Z,8.38
2024-05-09T01:45:39.540Z,8.60
2024-05-09T01:48:07.035Z,8.72
2024-05-09T01:50:38.986Z,8.80
2024-05-09T01:53:14.486Z,8.71
2024-05-09T01:55:42.076Z,8.44
2024-05-09T01:58:09.641Z,8.23
2024-05-09T02:00:40.616Z,8.22
2024-05-09T02:03:12.301Z,8.22
2024-05-09T02:05:43.078Z,8.28
2024-05-09T02:08:16.736Z,8.50
2024-05-09T02:10:44.646Z,8.59
2024-05-09T02:13:12.042Z,8.66
2024-05-09T02:15:38.962Z,8.64
2024-05-09T02:18:05.772Z,8.42
2024-05-09T02:20:36.409Z,8.19
2024-05-09T02:23:06.192Z,8.23
2024-05-09T02:25:33.729Z,8.40
2024-05-09T02:28:00.314Z,8.38
2024-05-09T02:30:37.763Z,8.47
2024-05-09T02:33:09.189Z,8.36
2024-05-09T02:35:37.067Z,8.31
2024-05-09T02:38:04.548Z,8.32
2024-05-09T02:40:37.619Z,8.41
2024-05-09T02:43:10.560Z,8.29
2024-05-09T02:45:38.976Z,8.27
2024-05-09T02:48:06.601Z,8.14
2024-05-09T02:50:38.302Z,7.97
2024-05-09T02:53:13.997Z,8.11
2024-05-09T02:55:42.225Z,8.22
2024-05-09T02:58:10.395Z,8.31
2024-05-09T03:00:40.783Z,8.20
2024-05-09T03:03:12.403Z,8.01
2024-05-09T03:05:41.614Z,8.06
2024-05-09T03:08:08.719Z,8.15
2024-05-09T03:10:37.866Z,8.17
2024-05-09T03:13:14.549Z,8.18
2024-05-09T03:15:42.892Z,8.25
2024-05-09T03:18:10.128Z,8.23
2024-05-09T03:20:38.401Z,8.14
2024-05-09T03:23:08.099Z,8.05
2024-05-09T03:25:36.024Z,7.90
2024-05-09T03:28:02.781Z,7.82
2024-05-09T03:30:38.831Z,7.80
2024-05-09T03:33:19.993Z,7.98
2024-05-09T03:35:48.841Z,7.99
2024-05-09T03:38:16.255Z,7.86
2024-05-09T03:40:47.267Z,7.66
2024-05-09T03:43:14.588Z,7.64
2024-05-09T03:45:45.116Z,7.74
2024-05-09T03:48:12.221Z,7.74
2024-05-09T03:50:39.273Z,7.76
2024-05-09T03:53:07.474Z,7.92
2024-05-09T03:55:34.075Z,7.89
2024-05-09T03:58:00.765Z,8.02
2024-05-09T04:00:35.495Z,8.12
2024-05-09T04:03:08.480Z,8.20
2024-05-09T04:05:39.502Z,8.23
2024-05-09T04:08:06.644Z,8.14
2024-05-09T04:10:34.908Z,8.08
2024-05-09T04:13:03.458Z,8.01
2024-05-09T04:15:30.765Z,7.90
2024-05-09T04:17:57.846Z,7.80
2024-05-09T04:20:34.242Z,7.80
2024-05-09T04:23:07.080Z,8.04
2024-05-09T04:25:34.859Z,8.36
2024-05-09T04:28:01.556Z,8.56
2024-05-09T04:30:36.569Z,8.71
2024-05-09T04:33:08.364Z,8.81
2024-05-09T04:35:37.282Z,8.67
2024-05-09T04:38:05.531Z,8.51
2024-05-09T04:40:35.597Z,8.41
2024-05-09T04:43:05.292Z,8.41
2024-05-09T04:45:32.404Z,8.52
2024-05-09T04:47:59.287Z,8.63
2024-05-09T04:50:35.361Z,8.69
2024-05-09T04:53:06.466Z,8.74
2024-05-09T04:55:36.205Z,8.87
2024-05-09T04:58:03.118Z,9.07
2024-05-09T05:00:35.930Z,9.30
2024-05-09T05:03:13.908Z,9.59
2024-05-09T05:05:43.938Z,9.80
2024-05-09T05:08:13.235Z,9.98
2024-05-09T05:10:40.858Z,10.20
2024-05-09T05:13:20.759Z,10.32
2024-05-09T05:15:52.089Z,10.51
2024-05-09T05:18:19.422Z,10.72
2024-05-09T05:20:46.540Z,10.71
2024-05-09T05:23:15.840Z,10.72
2024-05-09T05:25:43.018Z,10.85
2024-05-09T05:28:10.275Z,11.15
2024-05-09T05:30:37.947Z,11.33
2024-05-09T05:33:06.267Z,11.47
2024-05-09T05:35:34.218Z,11.40
2024-05-09T05:38:01.072Z,11.46
2024-05-09T05:40:35.670Z,11.48
2024-05-09T05:43:11.268Z,11.61
2024-05-09T05:45:39.223Z,11.70
2024-05-09T05:48:07.566Z,11.80
2024-05-09T05:50:37.374Z,11.88
2024-05-09T05:53:07.519Z,11.90
2024-05-09T05:55:35.126Z,12.03
2024-05-09T05:58:02.393Z,12.06
2024-05-09T06:00:35.398Z,12.16
2024-05-09T06:03:05.922Z,12.25
2024-05-09T06:05:33.028Z,12.30
2024-05-09T06:07:59.860Z,12.32
2024-05-09T06:10:36.732Z,12.25
2024-05-09T06:13:05.967Z,12.23
2024-05-09T06:15:32.560Z,12.37
2024-05-09T06:17:59.462Z,12.42
2024-05-09T06:20:34.526Z,12.40
2024-05-09T06:23:04.790Z,12.27
2024-05-09T06:25:31.724Z,12.41
2024-05-09T06:27:59.768Z,12.53
2024-05-09T06:30:35.296Z,12.52
2024-05-09T06:33:07.319Z,12.64
2024-05-09T06:35:34.525Z,12.54
2024-05-09T06:38:01.587Z,12.66
2024-05-09T06:40:36.508Z,12.77
2024-05-09T06:43:10.421Z,12.81
2024-05-09T06:45:37.310Z,12.83
2024-05-09T06:48:04.473Z,12.94
2024-05-09T06:50:36.798Z,13.08
2024-05-09T06:53:05.279Z,13.30
2024-05-09T06:55:32.075Z,13.31
2024-05-09T06:57:59.009Z,13.36
2024-05-09T07:00:34.469Z,13.64
2024-05-09T07:03:15.275Z,13.77
2024-05-09T07:05:44.958Z,13.75
2024-05-09T07:08:13.434Z,13.91
2024-05-09T07:10:40.282Z,14.16
2024-05-09T07:13:11.033Z,14.47
2024-05-09T07:15:38.566Z,14.49
2024-05-09T07:18:15.551Z,14.44
2024-05-09T07:20:43.146Z,14.35
2024-05-09T07:23:10.818Z,14.61
2024-05-09T07:25:38.097Z,14.72
2024-05-09T07:28:05.278Z,14.88
2024-05-09T07:30:34.425Z,14.95
2024-05-09T07:33:03.112Z,15.08
2024-05-09T07:35:30.936Z,15.12
2024-05-09T07:37:58.198Z,15.28
2024-05-09T07:40:32.912Z,15.44
2024-05-09T07:43:07.876Z,15.69
2024-05-09T07:52:32.674Z,15.73
2024-05-09T07:55:53.853Z,16.18
2024-05-09T07:58:20.871Z,16.21
2024-05-09T08:00:47.563Z,16.51
2024-05-09T08:03:14.395Z,16.26
2024-05-09T08:05:41.418Z,16.13
2024-05-09T08:08:08.152Z,16.17
2024-05-09T08:10:35.342Z,16.62
2024-05-09T08:13:02.125Z,16.88
2024-05-09T08:15:28.980Z,17.35
2024-05-09T08:17:56.254Z,17.17
2024-05-09T08:20:30.909Z,16.88
2024-05-09T08:23:01.534Z,17.01
2024-05-09T08:25:28.864Z,17.29
2024-05-09T08:27:55.566Z,17.25
2024-05-09T08:30:30.078Z,17.62
2024-05-09T08:33:03.989Z,17.93
2024-05-09T08:35:30.698Z,17.40
2024-05-09T08:37:58.381Z,17.40
2024-05-09T08:40:32.837Z,17.50
2024-05-09T08:43:06.694Z,17.74
2024-05-09T08:45:35.527Z,17.58
2024-05-09T08:48:06.035Z,17.49
2024-05-09T08:50:38.691Z,17.73
2024-05-09T08:53:07.482Z,17.78
2024-05-09T08:55:35.852Z,17.32
2024-05-09T08:58:05.499Z,17.20
2024-05-09T09:00:36.992Z,17.36
2024-05-09T09:03:07.513Z,17.70
2024-05-09T09:05:38.598Z,17.44
2024-05-09T09:08:09.030Z,17.42
2024-05-09T09:10:37.866Z,17.13
2024-05-09T09:13:07.226Z,17.07
2024-05-09T09:15:34.330Z,17.22
2024-05-09T09:18:02.135Z,17.08
2024-05-09T09:20:36.379Z,17.25
2024-05-09T09:23:04.617Z,17.44
2024-05-09T09:25:31.945Z,17.33
2024-05-09T09:27:58.962Z,17.31
2024-05-09T09:30:36.250Z,17.23
2024-05-09T09:33:06.346Z,17.36
2024-05-09T09:35:34.121Z,17.30
2024-05-09T09:38:05.869Z,17.49
2024-05-09T09:40:40.820Z,17.67
2024-05-09T09:43:20.861Z,17.89
2024-05-09T09:45:53.244Z,17.87
2024-05-09T09:48:22.015Z,17.70
2024-05-09T09:50:51.390Z,17.59
2024-05-09T09:53:19.427Z,17.33
2024-05-09T09:55:46.842Z,17.51
2024-05-09T09:58:14.832Z,17.80
2024-05-09T10:00:42.350Z,18.03
2024-05-09T10:03:09.372Z,17.86
2024-05-09T10:05:37.009Z,17.98
2024-05-09T10:08:07.309Z,18.35
2024-05-09T10:10:35.409Z,18.59
2024-05-09T10:13:06.611Z,18.71
2024-05-09T10:15:48.359Z,18.46
2024-05-09T10:18:15.592Z,18.25
2024-05-09T10:20:49.324Z,18.58
2024-05-09T10:23:56.284Z,18.29
2024-05-09T10:26:34.030Z,18.50
2024-05-09T10:29:10.258Z,18.80
2024-05-09T10:31:40.988Z,19.16
2024-05-09T10:34:23.032Z,18.95
2024-05-09T10:36:54.421Z,19.09
2024-05-09T10:39:21.719Z,19.47
2024-05-09T10:41:49.415Z,19.38
2024-05-09T10:44:17.182Z,19.33
2024-05-09T10:46:45.946Z,19.55
2024-05-09T10:49:14.344Z,19.62
2024-05-09T10:51:44.883Z,19.55
2024-05-09T10:54:11.712Z,19.83
2024-05-09T10:56:38.454Z,20.13
2024-05-09T10:59:05.463Z,20.32
2024-05-09T11:01:32.436Z,20.97
2024-05-09T11:03:59.354Z,21.23
2024-05-09T11:06:26.790Z,20.67
2024-05-09T11:08:53.483Z,20.30
2024-05-09T11:11:20.442Z,20.76
2024-05-09T11:13:47.178Z,21.55
2024-05-09T11:16:21.948Z,21.43
2024-05-09T11:18:58.581Z,21.06
2024-05-09T11:21:25.779Z,20.44
2024-05-09T11:23:52.991Z,20.34
2024-05-09T11:26:21.511Z,20.64
2024-05-09T11:28:48.681Z,21.57
2024-05-09T11:31:15.423Z,21.66
2024-05-09T11:33:44.699Z,21.94
2024-05-09T11:36:11.991Z,22.24
2024-05-09T11:38:38.831Z,22.08
2024-05-09T11:41:05.923Z,22.27
2024-05-09T11:43:33.186Z,22.63
2024-05-09T11:46:00.862Z,23.04
2024-05-09T11:48:28.105Z,22.39
2024-05-09T11:50:57.117Z,22.84
2024-05-09T11:53:23.904Z,23.33
2024-05-09T11:55:50.689Z,23.33
2024-05-09T11:58:18.896Z,23.33
2024-05-09T12:00:46.889Z,23.28
2024-05-09T12:03:14.182Z,22.99
2024-05-09T12:05:41.007Z,23.99
2024-05-09T12:08:08.043Z,24.94
2024-05-09T12:10:36.241Z,25.23
2024-05-09T12:13:05.903Z,26.17
2024-05-09T12:15:36.214Z,25.53
2024-05-09T12:18:04.580Z,26.68
2024-05-09T12:20:37.064Z,27.58
2024-05-09T12:23:06.935Z,26.83
2024-05-09T12:25:33.700Z,27.25
2024-05-09T12:28:00.642Z,28.11
2024-05-09T12:30:36.115Z,26.05
2024-05-09T12:33:07.907Z,25.43
2024-05-09T12:35:34.913Z,25.06
2024-05-09T12:38:01.592Z,25.14
2024-05-09T12:40:35.640Z,26.60
2024-05-09T12:43:05.976Z,26.00
2024-05-09T12:45:33.027Z,26.41
2024-05-09T12:48:00.006Z,28.10
2024-05-09T12:50:32.431Z,29.49
2024-05-09T12:53:01.720Z,30.36
2024-05-09T12:55:33.503Z,28.65
2024-05-09T12:58:07.048Z,28.40
2024-05-09T13:00:34.574Z,28.25
2024-05-09T13:03:01.876Z,27.48
2024-05-09T13:05:29.687Z,27.58
2024-05-09T13:07:57.200Z,27.90
2024-05-09T13:10:31.274Z,26.85
2024-05-09T13:13:00.492Z,28.55
2024-05-09T13:15:27.588Z,28.80
2024-05-09T13:17:56.397Z,28.21
2024-05-09T13:20:31.649Z,27.49
2024-05-09T13:23:05.761Z,28.43
2024-05-09T13:25:34.909Z,28.68
2024-05-09T13:28:03.262Z,29.42
2024-05-09T13:30:38.544Z,29.41
2024-05-09T13:33:09.310Z,29.42
2024-05-09T13:35:36.668Z,29.59
2024-05-09T13:38:04.601Z,28.04
2024-05-09T13:40:34.831Z,28.33
2024-05-09T13:43:05.743Z,27.87
2024-05-09T13:45:33.217Z,26.73
2024-05-09T13:48:00.645Z,28.07
2024-05-09T13:50:33.663Z,29.53
2024-05-09T13:53:03.253Z,31.33
2024-05-09T13:55:29.933Z,32.38
2024-05-09T13:57:56.715Z,33.20
2024-05-09T14:00:37.795Z,30.52
2024-05-09T14:03:10.804Z,30.52
2024-05-09T14:05:37.911Z,30.33
2024-05-09T14:08:05.397Z,30.56
2024-05-09T14:10:32.643Z,31.17
2024-05-09T14:13:00.978Z,31.17
2024-05-09T14:15:27.847Z,30.35
2024-05-09T14:17:55.479Z,30.70
2024-05-09T14:20:30.419Z,31.68
2024-05-09T14:22:59.954Z,31.29
2024-05-09T14:25:31.764Z,31.28
2024-05-09T14:27:58.715Z,31.62
2024-05-09T14:30:34.182Z,31.46
2024-05-09T14:33:05.216Z,31.72
2024-05-09T14:35:32.409Z,31.04
2024-05-09T14:37:59.289Z,32.63
2024-05-09T14:40:36.508Z,30.99
2024-05-09T14:43:08.731Z,31.02
2024-05-09T14:45:35.921Z,31.27
2024-05-09T14:48:03.968Z,31.57
2024-05-09T14:50:36.191Z,31.45
2024-05-09T14:53:10.465Z,31.31
2024-05-09T14:55:40.464Z,31.02
2024-05-09T14:58:09.705Z,30.12
2024-05-09T15:00:45.733Z,31.66
2024-05-09T15:03:16.422Z,32.65
2024-05-09T15:05:43.835Z,32.43
2024-05-09T15:08:10.626Z,32.52
2024-05-09T15:10:38.636Z,32.49
2024-05-09T15:13:07.917Z,33.68
2024-05-09T15:15:36.661Z,32.67
2024-05-09T15:18:04.902Z,29.53
2024-05-09T15:20:35.667Z,30.37
2024-05-09T15:23:05.709Z,28.72
2024-05-09T15:25:33.692Z,28.72
2024-05-09T15:28:00.863Z,29.62
2024-05-09T15:30:31.992Z,28.14
2024-05-09T15:33:03.197Z,29.21
2024-05-09T15:35:29.945Z,29.27
2024-05-09T15:37:56.771Z,29.37
2024-05-09T15:40:34.455Z,29.31
2024-05-09T15:43:06.212Z,30.55
2024-05-09T15:45:34.267Z,29.68
2024-05-09T15:48:02.455Z,29.75
2024-05-09T15:50:36.900Z,27.87
2024-05-09T15:53:07.942Z,27.93
2024-05-09T15:55:35.593Z,28.11
2024-05-09T15:58:04.553Z,27.24
2024-05-09T16:03:01.245Z,27.50
2024-05-09T16:05:28.262Z,27.52
2024-05-09T16:07:55.100Z,27.62
2024-05-09T16:10:25.986Z,26.63
2024-05-09T16:12:58.751Z,25.94
2024-05-09T16:15:25.496Z,25.86
2024-05-09T16:17:52.247Z,25.84
2024-05-09T16:20:29.925Z,25.29
2024-05-09T16:23:05.381Z,24.50
2024-05-09T16:25:32.106Z,25.47
2024-05-09T16:27:59.074Z,26.88
2024-05-09T16:30:32.139Z,26.86
2024-05-09T16:33:03.005Z,26.66
2024-05-09T16:35:30.268Z,25.56
2024-05-09T16:37:57.245Z,24.81
2024-05-09T16:40:34.219Z,24.12
2024-05-09T16:43:06.519Z,23.25
2024-05-09T16:45:33.635Z,23.65
2024-05-09T16:48:02.154Z,24.18
2024-05-09T16:50:33.705Z,24.59
2024-05-09T16:53:03.720Z,23.30
2024-05-09T16:55:30.663Z,22.73
2024-05-09T16:57:58.439Z,22.49
2024-05-09T17:00:35.821Z,22.52
2024-05-09T17:03:09.761Z,22.26
2024-05-09T17:05:37.120Z,22.13
2024-05-09T17:08:04.438Z,21.90
2024-05-09T17:10:33.815Z,20.91
2024-05-09T17:13:07.209Z,20.76
2024-05-09T17:15:36.801Z,20.77
2024-05-09T17:18:05.206Z,19.91
2024-05-09T17:20:35.286Z,19.71
2024-05-09T17:23:05.655Z,19.30
2024-05-09T17:25:33.193Z,19.50
2024-05-09T17:28:06.404Z,19.22
2024-05-09T17:30:36.969Z,19.30
2024-05-09T17:33:06.519Z,19.37
2024-05-09T17:35:33.350Z,19.00
2024-05-09T17:38:01.544Z,18.95
2024-05-09T17:40:33.547Z,18.88
2024-05-09T17:43:04.099Z,18.58
2024-05-09T17:45:31.766Z,18.38
2024-05-09T17:47:59.181Z,18.17
2024-05-09T17:50:33.441Z,18.11
2024-05-09T17:53:02.970Z,18.06
2024-05-09T17:55:29.951Z,17.98
2024-05-09T17:57:57.247Z,18.01
2024-05-09T18:00:33.511Z,17.97
2024-05-09T18:03:06.642Z,17.99
2024-05-09T18:05:35.585Z,17.84
2024-05-09T18:08:03.293Z,18.12
2024-05-09T18:10:35.992Z,18.19
2024-05-09T18:13:06.484Z,18.09
2024-05-09T18:15:33.663Z,18.24
2024-05-09T18:18:01.425Z,18.05
2024-05-09T18:20:37.745Z,17.88
2024-05-09T18:23:10.278Z,17.89
2024-05-09T18:25:37.228Z,17.97
2024-05-09T18:28:04.424Z,17.66
2024-05-09T18:30:34.596Z,17.60
2024-05-09T18:33:03.955Z,17.50
2024-05-09T18:35:30.974Z,17.38
2024-05-09T18:37:57.660Z,17.15
2024-05-09T18:40:32.598Z,17.06
2024-05-09T18:43:03.498Z,17.23
2024-05-09T18:45:30.643Z,17.13
2024-05-09T18:47:57.769Z,17.11
2024-05-09T18:50:33.736Z,17.12
2024-05-09T18:53:05.990Z,16.88
2024-05-09T18:55:32.744Z,16.63
2024-05-09T18:57:59.944Z,16.29
2024-05-09T19:00:33.881Z,16.17
2024-05-09T19:03:05.908Z,16.01
2024-05-09T19:05:35.282Z,16.06
2024-05-09T19:08:03.058Z,16.26
2024-05-09T19:10:34.268Z,16.25
2024-05-09T19:13:05.763Z,16.42
2024-05-09T19:15:36.081Z,16.43
2024-05-09T19:18:03.575Z,16.41
2024-05-09T19:20:34.479Z,16.39
2024-05-09T19:23:02.678Z,16.50
2024-05-09T19:25:29.399Z,16.54
2024-05-09T19:27:56.179Z,16.54
2024-05-09T19:30:30.417Z,16.33
2024-05-09T19:33:05.963Z,16.25
2024-05-09T19:35:33.198Z,16.24
2024-05-09T19:38:00.225Z,16.23
2024-05-09T19:40:31.544Z,16.45
2024-05-09T19:43:01.576Z,16.44
2024-05-09T19:45:29.053Z,16.33
2024-05-09T19:47:56.038Z,16.20
2024-05-09T19:50:31.599Z,16.20
2024-05-09T19:53:04.775Z,16.25
2024-05-09T19:55:31.395Z,16.30
2024-05-09T19:57:59.049Z,16.16
2024-05-09T20:00:32.795Z,15.96
2024-05-09T20:03:02.780Z,15.81
2024-05-09T20:05:32.614Z,15.62
2024-05-09T20:07:59.781Z,15.87
2024-05-09T20:10:31.674Z,15.87
2024-05-09T20:13:00.838Z,15.73
2024-05-09T20:15:27.660Z,15.65
2024-05-09T20:17:55.126Z,15.43
2024-05-09T20:22:51.932Z,15.46
2024-05-09T20:25:18.808Z,15.64
2024-05-09T20:27:45.675Z,15.80
2024-05-09T20:30:17.045Z,15.64
2024-05-09T20:32:48.171Z,15.43
2024-05-09T20:35:14.926Z,15.16
2024-05-09T20:37:41.568Z,14.95
2024-05-09T20:40:15.354Z,14.93
2024-05-09T20:42:45.384Z,14.82
2024-05-09T20:45:12.128Z,14.86
2024-05-09T20:47:38.793Z,15.06
2024-05-09T20:50:11.373Z,15.37
2024-05-09T20:52:43.259Z,15.48
2024-05-09T20:55:10.141Z,15.37
2024-05-09T20:57:36.918Z,15.21
2024-05-09T21:00:05.787Z,15.18
2024-05-09T21:02:38.174Z,14.97
2024-05-09T21:05:05.193Z,14.79
2024-05-09T21:07:32.516Z,14.68
2024-05-09T21:09:59.356Z,14.74
2024-05-09T21:12:26.082Z,14.72
2024-05-09T21:14:52.882Z,14.70
2024-05-09T21:17:19.897Z,14.60
2024-05-09T21:19:46.617Z,14.62
2024-05-09T21:22:13.389Z,14.53
2024-05-09T21:24:40.023Z,14.52
2024-05-09T21:27:06.702Z,14.46
2024-05-09T21:29:33.428Z,14.42
2024-05-09T21:32:00.196Z,14.46
2024-05-09T21:34:26.875Z,14.53
2024-05-09T21:36:53.566Z,14.75
2024-05-09T21:39:20.224Z,14.97
2024-05-09T21:41:47.048Z,15.14
2024-05-09T21:44:13.645Z,15.21
2024-05-09T21:46:40.515Z,15.27
2024-05-09T21:49:07.271Z,15.27
2024-05-09T21:51:34.025Z,15.30
2024-05-09T21:54:01.126Z,15.31
2024-05-09T21:56:28.014Z,15.25
2024-05-09T21:58:54.592Z,15.24
2024-05-09T22:01:22.324Z,15.22
2024-05-09T22:03:49.176Z,15.26
2024-05-09T22:06:16.100Z,15.27
2024-05-09T22:08:42.744Z,15.22
2024-05-09T22:11:09.466Z,15.13
2024-05-09T22:13:36.150Z,15.04
2024-05-09T22:16:04.102Z,15.00
2024-05-09T22:18:30.810Z,15.00
2024-05-09T22:20:57.761Z,15.01
2024-05-09T22:23:24.351Z,14.95
2024-05-09T22:25:51.048Z,14.79
2024-05-09T22:28:18.028Z,14.81
2024-05-09T22:30:46.221Z,14.87
2024-05-09T22:33:14.928Z,14.76
2024-05-09T22:35:41.918Z,14.48
2024-05-09T22:38:08.934Z,14.23
2024-05-09T22:40:46.599Z,13.97
2024-05-09T22:43:24.214Z,13.81
2024-05-09T22:45:55.598Z,13.97
2024-05-09T22:48:23.860Z,14.24
2024-05-09T22:50:51.676Z,14.23
2024-05-09T22:53:18.500Z,14.29
2024-05-09T22:55:45.143Z,14.31
2024-05-09T22:58:11.783Z,14.34
2024-05-09T23:00:38.610Z,14.44
2024-05-09T23:03:06.161Z,14.35
2024-05-09T23:05:33.215Z,14.43
2024-05-09T23:08:01.785Z,14.43
2024-05-09T23:10:35.539Z,14.47
2024-05-09T23:13:05.820Z,14.44
2024-05-09T23:15:32.743Z,14.34
2024-05-09T23:17:59.555Z,14.31
2024-05-09T23:20:33.936Z,14.20
2024-05-09T23:23:05.844Z,14.11
2024-05-09T23:25:32.686Z,14.21
2024-05-09T23:27:59.376Z,14.30
2024-05-09T23:30:36.108Z,14.36
2024-05-09T23:33:06.498Z,14.23
2024-05-09T23:35:33.305Z,14.07
2024-05-09T23:38:00.037Z,14.15
2024-05-09T23:40:35.077Z,14.11
2024-05-09T23:43:05.863Z,13.91
2024-05-09T23:45:32.744Z,13.91
2024-05-09T23:47:59.947Z,13.95
2024-05-09T23:50:33.800Z,13.92
2024-05-09T23:53:03.433Z,13.69
2024-05-09T23:55:31.307Z,13.48
2024-05-09T23:57:58.275Z,13.56
